Time;durP1;ratioP1;P1;durP2;ratioP2;P2;SDS_P1;SDS_P2;PMS_P1;PMS_P2;Temp;Humidity;BMP_temperature;BMP_pressure;BME280_temperature;BME280_humidity;BME280_pressure;Samples;Min_cycle;Max_cycle;Signal;HPM_P1;HPM_P2
2021/12/01 00:00:01;;;;;;;0.65;0.50;;;5.00;81.20;;;3.25;92.88;95480.28;4931994;28;20031;-64
2021/12/01 00:02:27;;;;;;;0.77;0.50;;;5.00;81.00;;;3.28;92.17;95494.72;4931168;28;20115;-64
2021/12/01 00:04:52;;;;;;;0.60;0.50;;;5.00;81.10;;;3.30;92.03;95477.19;4932433;28;20127;-64
2021/12/01 00:07:18;;;;;;;0.93;0.73;;;5.00;81.20;;;3.31;92.38;95495.22;4930552;28;20063;-65
2021/12/01 00:09:44;;;;;;;0.98;0.70;;;5.00;81.30;;;3.30;92.54;95482.38;4915169;29;20079;-64
2021/12/01 00:12:10;;;;;;;1.40;0.50;;;5.00;81.20;;;3.31;92.45;95481.41;4930987;28;20538;-64
2021/12/01 00:14:35;;;;;;;0.93;0.70;;;5.00;81.20;;;3.32;92.44;95467.44;4932140;28;20036;-63
2021/12/01 00:17:01;;;;;;;0.70;0.60;;;5.10;81.20;;;3.33;92.31;95477.69;4931360;28;20071;-63
2021/12/01 00:19:29;;;;;;;1.70;0.80;;;5.10;81.10;;;3.35;92.58;95469.72;4931469;28;20032;-63
2021/12/01 00:21:56;;;;;;;1.20;0.60;;;5.10;81.20;;;3.33;92.69;95456.06;4930777;28;20043;-63
2021/12/01 00:24:22;;;;;;;1.27;0.80;;;5.10;81.30;;;3.34;92.93;95458.50;4915026;28;20031;-63
2021/12/01 00:26:47;;;;;;;0.65;0.60;;;5.10;81.40;;;3.35;92.63;95470.53;4930935;28;20040;-63
2021/12/01 00:29:13;;;;;;;0.68;0.55;;;5.10;81.50;;;3.38;93.02;95448.59;4931181;28;20047;-63
2021/12/01 00:31:41;;;;;;;1.00;0.57;;;5.10;81.60;;;3.40;92.13;95457.09;4934621;28;20111;-65
2021/12/01 00:34:07;;;;;;;0.60;0.60;;;5.10;81.50;;;3.37;92.60;95447.78;4934458;28;20036;-63
2021/12/01 00:36:33;;;;;;;0.80;0.55;;;5.10;81.60;;;3.40;92.83;95451.88;4934151;28;20071;-63
2021/12/01 00:38:58;;;;;;;0.88;0.68;;;5.10;81.70;;;3.38;93.46;95443.41;4934528;29;20032;-63
2021/12/01 00:41:25;;;;;;;0.68;0.50;;;5.10;81.90;;;3.40;93.25;95444.09;4952530;23;20125;-67
2021/12/01 00:43:51;;;;;;;0.45;0.40;;;5.10;81.80;;;3.42;93.12;95446.53;4967870;28;20034;-67
2021/12/01 00:46:24;;;;;;;1.48;0.40;;;5.10;81.90;;;3.43;92.74;95430.75;4971939;28;20109;-67
2021/12/01 00:48:50;;;;;;;1.02;0.60;;;5.20;81.90;;;3.44;92.97;95455.78;4961118;28;20049;-67
2021/12/01 00:51:18;;;;;;;0.75;0.60;;;5.20;81.90;;;3.44;92.86;95437.59;4974703;28;20062;-67
2021/12/01 00:53:44;;;;;;;0.88;0.60;;;5.10;82.00;;;3.46;93.99;95434.81;4959435;28;20042;-67
2021/12/01 00:56:10;;;;;;;0.88;0.57;;;5.10;82.40;;;3.45;93.70;95434.00;4988490;28;20518;-67
2021/12/01 00:58:36;;;;;;;0.77;0.45;;;5.20;82.00;;;3.47;93.28;95436.44;4940247;28;20031;-67
2021/12/01 01:01:02;;;;;;;0.50;0.47;;;5.10;82.20;;;3.47;93.61;95429.47;4940110;28;20156;-66
2021/12/01 01:03:28;;;;;;;2.22;0.43;;;5.10;82.00;;;3.49;92.83;95444.91;4962532;28;20513;-67
2021/12/01 01:05:54;;;;;;;0.70;0.43;;;5.20;81.70;;;3.51;93.10;95435.94;4953796;28;20053;-67
2021/12/01 01:08:20;;;;;;;0.40;0.40;;;5.30;81.50;;;3.52;92.91;95418.56;4979110;28;20038;-67
2021/12/01 01:11:07;;;;;;;0.68;0.50;;;5.30;81.30;;;3.53;92.56;95418.41;4958132;28;20034;-67
2021/12/01 01:16:22;;;;;;;1.42;0.40;;;5.30;81.10;;;3.58;92.59;95428.31;4969964;28;20041;-66
2021/12/01 01:18:51;;;;;;;0.40;0.35;;;5.30;80.90;;;3.59;92.43;95407.34;4975579;28;20166;-67
2021/12/01 01:21:17;;;;;;;0.47;0.40;;;5.40;80.80;;;3.60;92.10;95401.16;5009999;28;20045;-67
2021/12/01 01:23:43;;;;;;;0.30;0.30;;;5.40;80.50;;;3.61;91.71;95402.78;5000607;28;20133;-67
2021/12/01 01:26:13;;;;;;;0.50;0.40;;;5.40;80.40;;;3.64;91.55;95402.50;4968523;28;20062;-67
2021/12/01 01:28:39;;;;;;;0.43;0.43;;;5.40;80.50;;;3.65;92.21;95414.53;4980800;28;20034;-67
2021/12/01 01:31:05;;;;;;;0.40;0.40;;;5.40;80.40;;;3.67;91.68;95390.94;4980967;28;20057;-67
2021/12/01 01:33:31;;;;;;;0.25;0.25;;;5.40;80.50;;;3.69;91.78;95379.41;4990156;28;20034;-67
2021/12/01 01:35:56;;;;;;;0.40;0.30;;;5.40;80.40;;;3.71;91.93;95370.63;4963447;28;20034;-67
2021/12/01 01:38:22;;;;;;;0.50;0.30;;;5.40;80.50;;;3.69;91.48;95357.78;4967596;28;20038;-67
2021/12/01 01:40:49;;;;;;;0.40;0.38;;;5.50;80.60;;;3.74;91.47;95362.50;4940929;28;20391;-67
2021/12/01 01:43:15;;;;;;;0.60;0.40;;;5.40;80.80;;;3.75;92.26;95371.91;4989157;28;20034;-67
2021/12/01 01:45:40;;;;;;;0.40;0.30;;;5.40;81.20;;;3.75;91.95;95356.31;4958230;28;20037;-67
2021/12/01 01:48:11;;;;;;;0.60;0.40;;;5.40;80.90;;;3.75;91.41;95362.31;4971592;28;20027;-67
2021/12/01 01:50:41;;;;;;;0.40;0.30;;;5.50;80.80;;;3.77;91.45;95356.94;4964255;28;20027;-67
2021/12/01 01:53:12;;;;;;;2.08;0.60;;;5.50;80.50;;;3.79;91.50;95373.19;4956375;28;20058;-67
2021/12/01 01:55:44;;;;;;;0.88;0.60;;;5.40;80.60;;;3.81;91.10;95371.25;4967540;28;20049;-66
2021/12/01 01:58:10;;;;;;;0.40;0.40;;;5.50;80.50;;;3.82;90.85;95362.47;4954562;28;20038;-68
2021/12/01 02:00:44;;;;;;;0.60;0.40;;;5.60;80.40;;;3.83;91.15;95358.88;4967381;28;20414;-66
2021/12/01 02:03:12;;;;;;;0.77;0.40;;;5.60;80.10;;;3.84;90.77;95358.72;4972633;28;20121;-66
2021/12/01 02:05:38;;;;;;;0.40;0.40;;;5.60;80.20;;;3.86;91.17;95354.19;4956711;28;20081;-67
2021/12/01 02:08:04;;;;;;;1.40;0.52;;;5.60;80.00;;;3.88;90.92;95361.81;4953870;28;20117;-66
2021/12/01 02:10:30;;;;;;;0.85;0.47;;;5.60;80.30;;;3.89;91.65;95363.44;4973725;28;20049;-67
2021/12/01 02:12:56;;;;;;;1.73;0.55;;;5.60;79.90;;;3.91;91.16;95353.69;4988644;28;20070;-67
2021/12/01 02:15:22;;;;;;;2.13;0.60;;;5.60;80.20;;;3.92;90.54;95347.50;4973048;28;20052;-67
2021/12/01 02:17:48;;;;;;;0.93;0.50;;;5.60;80.20;;;3.92;90.44;95332.69;4973063;28;20030;-67
2021/12/01 02:20:19;;;;;;;1.38;0.73;;;5.60;80.20;;;3.93;90.53;95328.31;4994244;28;20471;-67
2021/12/01 02:22:45;;;;;;;1.60;0.50;;;5.60;80.20;;;3.94;90.87;95335.13;4969456;28;20053;-67
2021/12/01 02:25:11;;;;;;;1.40;0.80;;;5.60;80.20;;;3.95;91.47;95336.75;4956661;28;20191;-67
2021/12/01 02:27:37;;;;;;;1.05;0.57;;;5.60;80.30;;;3.95;90.96;95331.56;4988127;28;20042;-67
2021/12/01 02:30:03;;;;;;;0.73;0.50;;;5.60;80.30;;;3.96;91.33;95349.59;4974269;28;20072;-67
2021/12/01 02:32:28;;;;;;;0.55;0.40;;;5.70;80.10;;;3.97;91.17;95327.00;4948137;28;20183;-67
2021/12/01 02:34:54;;;;;;;0.55;0.40;;;5.70;80.10;;;3.99;91.45;95312.03;4971233;28;20039;-66
2021/12/01 02:37:21;;;;;;;0.63;0.52;;;5.70;80.00;;;4.00;90.73;95308.44;4984027;28;20391;-67
2021/12/01 02:39:50;;;;;;;0.40;0.40;;;5.70;79.90;;;4.00;91.06;95298.03;4957376;28;20360;-67
2021/12/01 02:42:20;;;;;;;0.40;0.40;;;5.70;79.90;;;4.01;90.88;95289.25;4972957;28;20050;-67
2021/12/01 02:44:46;;;;;;;2.35;0.60;;;5.70;80.00;;;4.02;90.89;95288.28;4937033;28;20175;-67
2021/12/01 02:47:12;;;;;;;4.28;0.50;;;5.70;80.00;;;4.03;90.31;95292.50;4981584;28;20035;-67
2021/12/01 02:49:38;;;;;;;0.50;0.45;;;5.70;80.00;;;4.03;90.16;95287.28;4950277;28;20034;-67
2021/12/01 02:52:05;;;;;;;0.40;0.40;;;5.70;79.90;;;4.05;90.43;95290.53;4956131;28;20148;-67
2021/12/01 02:54:32;;;;;;;0.40;0.40;;;5.70;79.70;;;4.06;89.98;95281.75;4960752;28;20043;-67
2021/12/01 02:56:58;;;;;;;0.90;0.50;;;5.70;79.80;;;4.07;90.41;95278.16;4955140;28;20026;-67
2021/12/01 02:59:24;;;;;;;0.88;0.47;;;5.70;79.70;;;4.06;90.26;95289.56;4954895;28;20031;-67
2021/12/01 03:01:49;;;;;;;0.68;0.40;;;5.70;79.90;;;4.08;89.81;95290.22;4952227;28;20402;-67
2021/12/01 03:04:15;;;;;;;0.68;0.50;;;5.80;80.20;;;4.07;90.91;95292.97;4971929;28;20038;-67
2021/12/01 03:06:44;;;;;;;0.47;0.30;;;5.70;80.40;;;4.06;91.14;95284.34;4961857;28;20411;-67
2021/12/01 03:09:09;;;;;;;0.40;0.40;;;5.80;80.70;;;4.05;91.56;95277.53;4956533;28;20046;-67
2021/12/01 03:11:36;;;;;;;0.40;0.40;;;5.70;81.10;;;4.05;91.18;95274.09;4942476;28;20035;-67
2021/12/01 03:14:08;;;;;;;0.73;0.50;;;5.70;81.40;;;4.03;92.12;95271.69;4958391;28;20027;-66
2021/12/01 03:16:35;;;;;;;0.40;0.30;;;5.70;81.70;;;4.01;92.49;95265.84;4973437;28;20096;-67
2021/12/01 03:19:00;;;;;;;0.45;0.35;;;5.70;81.60;;;3.98;92.05;95263.56;4972071;28;20029;-67
2021/12/01 03:21:26;;;;;;;0.40;0.40;;;5.70;81.60;;;3.96;91.85;95252.53;4971222;28;20035;-67
2021/12/01 03:23:52;;;;;;;0.82;0.65;;;5.60;81.60;;;3.95;92.35;95248.31;4956027;28;20030;-66
2021/12/01 03:26:18;;;;;;;0.70;0.50;;;5.60;81.70;;;3.94;92.68;95262.28;4956289;28;20039;-66
2021/12/01 03:28:43;;;;;;;0.82;0.55;;;5.60;81.80;;;3.92;92.06;95253.84;4946802;28;20114;-66
2021/12/01 03:31:09;;;;;;;1.15;0.70;;;5.60;81.90;;;3.90;91.91;95250.59;4968419;28;20046;-67
2021/12/01 03:33:35;;;;;;;1.83;0.95;;;5.60;81.70;;;3.91;92.74;95247.03;4967834;28;20113;-66
2021/12/01 03:36:01;;;;;;;2.13;1.10;;;5.60;82.20;;;3.90;92.29;95251.41;4925202;28;20134;-67
2021/12/01 03:38:27;;;;;;;1.25;0.80;;;5.60;82.00;;;3.90;92.91;95242.81;4955288;28;20397;-67
2021/12/01 03:40:57;;;;;;;0.80;0.60;;;5.60;81.80;;;3.91;92.94;95236.63;4956142;28;20038;-67
2021/12/01 03:43:23;;;;;;;0.85;0.63;;;5.70;81.60;;;3.91;92.05;95241.81;4940236;28;20405;-67
2021/12/01 03:45:48;;;;;;;0.95;0.60;;;5.70;81.40;;;3.92;92.76;95243.44;4943686;28;20031;-68
2021/12/01 03:48:14;;;;;;;0.52;0.40;;;5.70;81.40;;;3.93;92.46;95242.47;4961080;28;20039;-67
2021/12/01 03:50:40;;;;;;;1.00;0.50;;;5.70;81.20;;;3.94;92.49;95249.28;4946211;28;20062;-67
2021/12/01 03:53:06;;;;;;;0.95;0.60;;;5.70;81.00;;;3.94;91.97;95251.88;4959736;28;20543;-67
2021/12/01 03:55:32;;;;;;;0.60;0.50;;;5.70;80.90;;;3.97;92.19;95243.75;4971777;28;20507;-67
2021/12/01 03:57:57;;;;;;;0.82;0.52;;;5.70;80.80;;;3.98;92.71;95253.16;4990582;28;20502;-66
2021/12/01 04:00:23;;;;;;;0.60;0.50;;;5.80;81.10;;;3.99;92.11;95253.00;4961137;28;20045;-66
2021/12/01 04:02:49;;;;;;;0.60;0.50;;;5.80;81.10;;;4.00;92.84;95235.59;4968473;28;20039;-67
2021/12/01 04:05:15;;;;;;;0.80;0.60;;;5.90;81.30;;;4.00;93.30;95238.19;4979247;28;20049;-67
2021/12/01 04:07:41;;;;;;;1.13;0.52;;;5.80;81.30;;;3.99;92.85;95228.78;4987555;28;20089;-67
2021/12/01 04:10:12;;;;;;;0.98;0.70;;;5.80;81.40;;;3.99;92.34;95229.56;4955443;28;20129;-67
2021/12/01 04:12:38;;;;;;;0.90;0.57;;;5.80;81.20;;;3.99;92.59;95223.56;4972420;28;20053;-66
2021/12/01 04:15:05;;;;;;;0.80;0.60;;;5.80;81.50;;;3.99;92.38;95229.56;4938244;28;20490;-67
2021/12/01 04:17:31;;;;;;;1.48;0.50;;;5.80;81.50;;;3.99;92.66;95218.34;4955927;28;20144;-67
2021/12/01 04:19:56;;;;;;;1.30;0.98;;;5.70;81.60;;;3.99;92.59;95221.78;4953809;28;20054;-67
2021/12/01 04:22:22;;;;;;;1.17;0.90;;;5.80;81.50;;;3.99;92.47;95218.34;4968923;28;20047;-67
2021/12/01 04:24:48;;;;;;;1.13;0.77;;;5.80;81.50;;;3.99;92.46;95213.16;4957705;28;20121;-67
2021/12/01 04:27:14;;;;;;;0.82;0.75;;;5.80;81.50;;;3.99;92.52;95207.94;4936611;28;20039;-67
2021/12/01 04:29:40;;;;;;;1.70;1.00;;;5.80;81.30;;;3.98;92.86;95201.13;4981841;28;20144;-68
2021/12/01 04:32:08;;;;;;;1.10;1.00;;;5.80;81.50;;;4.01;93.03;95200.78;4948516;28;20133;-67
2021/12/01 04:34:35;;;;;;;1.58;0.95;;;5.80;80.90;;;4.00;92.49;95186.16;4986231;28;20035;-68
2021/12/01 04:37:01;;;;;;;1.80;1.00;;;5.80;81.10;;;4.02;92.78;95191.19;4968719;28;20096;-67
2021/12/01 04:39:27;;;;;;;1.35;1.02;;;5.80;81.00;;;4.03;92.15;95180.59;4967951;28;20042;-66
2021/12/01 04:42:03;;;;;;;1.42;1.00;;;5.80;80.90;;;4.03;92.34;95193.63;4987000;28;20421;-66
2021/12/01 04:44:30;;;;;;;0.88;0.80;;;5.70;80.70;;;4.04;92.65;95192.63;4968351;28;20033;-66
2021/12/01 04:46:57;;;;;;;1.35;0.93;;;5.80;80.70;;;4.06;91.97;95177.66;4971207;28;20394;-66
2021/12/01 04:49:23;;;;;;;1.20;1.10;;;5.90;80.70;;;4.08;92.00;95183.53;4967892;28;20136;-67
2021/12/01 04:51:53;;;;;;;1.50;1.00;;;5.90;80.70;;;4.10;91.62;95184.16;4936332;28;20035;-67
2021/12/01 04:54:19;;;;;;;2.15;1.33;;;5.90;80.60;;;4.11;91.70;95167.56;4955118;28;20039;-67
2021/12/01 04:56:45;;;;;;;5.70;3.28;;;5.90;80.60;;;4.11;92.19;95170.19;4969212;28;20039;-67
2021/12/01 04:59:11;;;;;;;11.88;5.97;;;5.90;80.30;;;4.11;91.84;95159.75;4951628;28;20038;-67
2021/12/01 05:01:37;;;;;;;15.07;7.30;;;5.90;80.50;;;4.14;92.03;95156.81;4968301;28;20086;-68
2021/12/01 05:04:04;;;;;;;11.55;5.93;;;5.90;80.20;;;4.16;91.63;95161.84;4983725;28;20109;-67
2021/12/01 05:06:29;;;;;;;1.95;1.30;;;6.00;80.30;;;4.18;91.39;95157.28;4952422;28;20475;-67
2021/12/01 05:08:55;;;;;;;4.00;3.00;;;6.00;80.10;;;4.18;91.30;95165.88;4953111;28;20046;-67
2021/12/01 05:11:21;;;;;;;2.08;1.50;;;6.00;80.10;;;4.20;91.20;95158.72;4967612;28;20434;-67
2021/12/01 05:13:47;;;;;;;4.10;3.25;;;5.90;79.90;;;4.20;91.47;95156.13;4971281;28;20061;-67
2021/12/01 05:16:12;;;;;;;2.33;1.73;;;6.00;79.90;;;4.20;90.94;95148.31;4957046;28;20116;-67
2021/12/01 05:18:38;;;;;;;1.80;1.25;;;6.00;80.00;;;4.22;91.49;95156.75;4951408;28;20069;-67
2021/12/01 05:21:04;;;;;;;1.40;1.02;;;6.10;80.00;;;4.22;91.51;95148.13;4968327;28;20141;-67
2021/12/01 05:23:30;;;;;;;1.83;1.30;;;6.00;80.00;;;4.22;91.18;95151.53;4974009;28;20085;-67
2021/12/01 05:25:56;;;;;;;1.40;1.02;;;6.10;79.90;;;4.23;91.23;95136.75;4958268;28;20034;-67
2021/12/01 05:28:21;;;;;;;1.80;1.38;;;6.10;80.00;;;4.24;91.61;95139.16;4950333;28;20340;-67
2021/12/01 05:30:47;;;;;;;1.98;1.65;;;6.10;80.20;;;4.22;91.58;95125.53;4977825;28;20130;-67
2021/12/01 05:33:14;;;;;;;3.70;2.85;;;6.00;80.70;;;4.24;91.51;95127.94;4973592;28;20042;-67
2021/12/01 05:35:42;;;;;;;3.25;2.47;;;6.00;81.00;;;4.21;91.59;95110.88;4959683;28;20045;-70
2021/12/01 05:38:08;;;;;;;2.70;1.90;;;5.90;81.30;;;4.22;91.83;95116.91;4949587;28;20031;-70
2021/12/01 05:40:34;;;;;;;4.93;3.63;;;5.90;81.50;;;4.21;92.12;95112.69;4939260;28;20553;-69
2021/12/01 05:42:59;;;;;;;7.40;4.80;;;6.10;81.60;;;4.22;92.43;95104.69;4947294;28;20097;-75
2021/12/01 05:45:25;;;;;;;5.43;3.40;;;6.10;81.90;;;4.22;92.73;95091.69;4973711;28;20041;-68
2021/12/01 05:47:51;;;;;;;6.43;4.85;;;6.00;81.80;;;4.23;92.67;95101.09;4973781;28;20034;-68
2021/12/01 05:50:17;;;;;;;5.40;3.75;;;6.10;81.70;;;4.22;92.70;95099.50;4942153;28;20038;-67
2021/12/01 05:52:43;;;;;;;2.00;1.58;;;6.00;82.00;;;4.20;93.85;95096.25;4957377;28;20208;-68
2021/12/01 05:55:09;;;;;;;3.00;1.50;;;6.00;82.20;;;4.19;93.30;95109.44;4954439;28;20078;-67
2021/12/01 05:57:35;;;;;;;2.97;2.20;;;6.00;82.10;;;4.16;93.67;95095.00;4963165;28;20041;-65
2021/12/01 06:00:00;;;;;;;2.67;2.20;;;5.90;82.30;;;4.16;93.41;95088.97;4972560;28;20058;-66
2021/12/01 06:02:27;;;;;;;1.70;1.40;;;6.00;82.40;;;4.16;93.60;95089.78;4969066;28;20042;-64
2021/12/01 06:04:53;;;;;;;2.40;1.67;;;6.00;82.40;;;4.14;94.05;95090.94;4971437;28;20062;-67
2021/12/01 06:07:19;;;;;;;3.47;2.83;;;6.00;82.30;;;4.15;94.31;95087.34;4956253;28;20042;-65
2021/12/01 06:09:45;;;;;;;5.57;4.03;;;5.90;82.60;;;4.15;93.84;95092.56;4957340;28;20041;-67
2021/12/01 06:12:12;;;;;;;8.00;6.13;;;5.90;82.20;;;4.13;93.82;95079.72;4937616;28;20035;-66
2021/12/01 06:14:40;;;;;;;4.22;2.83;;;5.90;82.70;;;4.13;94.46;95079.72;4959007;28;20035;-67
2021/12/01 06:17:07;;;;;;;3.13;2.25;;;5.90;82.60;;;4.12;93.77;95080.72;4988592;28;20034;-66
2021/12/01 06:19:33;;;;;;;2.80;2.03;;;5.90;82.50;;;4.12;94.13;95067.69;4973017;28;20490;-65
2021/12/01 06:21:59;;;;;;;2.30;1.67;;;5.90;82.50;;;4.12;94.33;95066.88;4972012;28;20097;-67
2021/12/01 06:24:25;;;;;;;2.38;1.50;;;5.90;82.50;;;4.12;94.12;95061.69;4988453;28;20038;-67
2021/12/01 06:26:50;;;;;;;2.08;1.40;;;5.90;82.40;;;4.11;93.79;95058.28;4981323;28;20058;-66
2021/12/01 06:29:16;;;;;;;2.35;1.40;;;5.90;82.60;;;4.08;94.10;95040.41;4971480;28;20561;-67
2021/12/01 06:31:42;;;;;;;2.45;1.60;;;5.80;82.40;;;4.10;94.17;95048.84;4986483;28;20030;-65
2021/12/01 06:34:07;;;;;;;2.78;1.30;;;5.80;82.60;;;4.10;93.90;95033.25;4978423;28;20185;-66
2021/12/01 06:36:33;;;;;;;2.10;1.10;;;5.80;82.30;;;4.10;93.26;95033.25;4974995;28;20534;-65
2021/12/01 06:38:59;;;;;;;1.52;1.23;;;5.80;82.20;;;4.09;93.73;95026.41;4955145;28;20066;-67
2021/12/01 06:41:25;;;;;;;2.47;1.40;;;5.90;82.20;;;4.10;93.47;95030.63;4954128;28;20043;-68
2021/12/01 06:43:52;;;;;;;1.73;1.25;;;5.90;82.00;;;4.13;93.91;95026.88;4985765;28;20052;-66
2021/12/01 06:46:17;;;;;;;3.05;1.10;;;5.90;81.70;;;4.13;93.18;95042.50;4956029;28;20026;-67
2021/12/01 06:48:43;;;;;;;1.25;0.90;;;6.00;81.60;;;4.13;93.21;95027.69;4989156;28;20042;-67
2021/12/01 06:51:09;;;;;;;2.50;1.00;;;5.90;81.30;;;4.15;92.69;95020.50;4971306;28;20640;-67
2021/12/01 06:53:35;;;;;;;1.38;1.02;;;5.90;81.30;;;4.16;92.88;95027.31;4987572;28;20038;-66
2021/12/01 06:56:00;;;;;;;2.10;1.20;;;6.00;81.10;;;4.19;92.87;95024.38;4956225;28;20040;-66
2021/12/01 06:58:26;;;;;;;1.67;1.17;;;6.00;80.90;;;4.19;93.44;95019.16;4987909;28;20509;-64
2021/12/01 07:00:52;;;;;;;2.35;1.50;;;6.00;81.10;;;4.21;93.07;95013.78;4986105;28;20100;-67
2021/12/01 07:03:17;;;;;;;6.18;4.13;;;6.10;80.60;;;4.22;92.43;95015.41;4968091;28;20525;-68
2021/12/01 07:05:43;;;;;;;2.58;1.73;;;6.10;80.40;;;4.24;92.81;95003.00;4953595;28;20046;-65
2021/12/01 07:08:09;;;;;;;1.38;0.90;;;6.10;80.60;;;4.26;92.29;95001.03;4972216;28;20043;-69
2021/12/01 07:10:35;;;;;;;1.83;1.10;;;6.10;80.10;;;4.26;92.54;95001.84;4953557;28;20030;-71
2021/12/01 07:13:01;;;;;;;1.50;1.20;;;6.10;80.00;;;4.27;91.46;95006.06;4950982;28;20475;-66
2021/12/01 07:15:26;;;;;;;2.80;1.50;;;6.10;79.80;;;4.27;91.04;94998.25;4986486;28;20442;-64
2021/12/01 07:17:52;;;;;;;2.03;1.67;;;6.10;79.50;;;4.31;91.71;95003.94;4973919;28;20559;-66
2021/12/01 07:20:18;;;;;;;2.03;1.30;;;6.10;79.30;;;4.32;91.03;94991.75;5008011;28;20379;-70
2021/12/01 07:22:43;;;;;;;1.70;1.23;;;6.10;79.20;;;4.33;91.19;94990.75;4990685;28;20120;-69
2021/12/01 07:25:09;;;;;;;2.22;1.35;;;6.10;79.30;;;4.37;90.25;94997.22;4987886;28;20069;-63
2021/12/01 07:27:35;;;;;;;1.95;1.00;;;6.10;79.00;;;4.37;90.63;94976.38;4986844;28;20042;-68
2021/12/01 07:30:04;;;;;;;1.75;0.73;;;6.10;79.10;;;4.39;90.30;94984.81;4949732;28;20046;-66
2021/12/01 07:32:29;;;;;;;2.08;1.08;;;6.20;78.90;;;4.39;90.35;94969.22;4971832;28;20510;-64
2021/12/01 07:34:57;;;;;;;1.13;0.82;;;6.20;78.10;;;4.41;89.46;94967.22;4971488;28;20096;-65
2021/12/01 07:37:22;;;;;;;1.75;0.90;;;6.20;77.90;;;4.45;89.76;94958.06;4952635;28;20054;-63
2021/12/01 07:39:48;;;;;;;1.15;0.90;;;6.20;77.60;;;4.47;88.85;94956.09;4974126;28;20027;-64
2021/12/01 07:42:14;;;;;;;1.52;0.90;;;6.20;78.00;;;4.48;89.33;94955.09;4951759;28;20700;-66
2021/12/01 07:44:40;;;;;;;1.45;1.00;;;6.20;78.00;;;4.48;89.10;94937.69;4954218;28;20130;-70
2021/12/01 07:47:06;;;;;;;2.28;1.20;;;6.20;77.70;;;4.49;88.44;94949.72;4983571;28;20054;-70
2021/12/01 07:49:32;;;;;;;2.67;1.75;;;6.20;77.60;;;4.51;89.00;94949.53;4980072;28;20038;-68
2021/12/01 07:51:57;;;;;;;2.80;1.50;;;6.20;77.70;;;4.50;88.62;94948.72;4982466;28;20030;-69
2021/12/01 07:54:23;;;;;;;1.77;1.05;;;6.20;77.70;;;4.53;87.82;94952.78;4987222;28;20054;-68
2021/12/01 07:56:49;;;;;;;6.10;2.60;;;6.30;77.60;;;4.53;87.82;94958.00;4948058;28;20031;-66
2021/12/01 07:59:15;;;;;;;1.83;1.08;;;6.30;77.30;;;4.55;87.58;94953.41;4988497;28;20042;-68
2021/12/01 08:01:42;;;;;;;2.95;1.58;;;6.30;77.10;;;4.56;87.89;94949.81;4970824;28;20034;-70
2021/12/01 08:04:09;;;;;;;1.65;1.17;;;6.40;77.50;;;4.61;87.47;94945.69;4976270;28;20045;-65
2021/12/01 08:06:35;;;;;;;1.52;1.00;;;6.40;77.00;;;4.61;88.06;94932.66;4955918;28;20414;-67
2021/12/01 08:09:02;;;;;;;0.93;0.75;;;6.40;77.00;;;4.63;87.38;94932.47;4971318;28;20104;-67
2021/12/01 08:11:28;;;;;;;2.35;1.10;;;6.40;77.00;;;4.65;87.41;94940.91;4967696;28;20492;-67
2021/12/01 08:13:54;;;;;;;1.30;0.90;;;6.50;76.90;;;4.68;87.11;94937.16;4951467;28;20046;-71
2021/12/01 08:16:20;;;;;;;1.95;1.05;;;6.50;76.80;;;4.69;87.25;94926.53;4984213;28;20068;-68
2021/12/01 08:18:51;;;;;;;3.67;1.75;;;6.50;76.50;;;4.74;87.67;94926.00;4964860;28;20129;-69
2021/12/01 08:21:17;;;;;;;;;;;6.70;76.20;;;4.75;86.62;94928.44;4981104;28;20050;-67
2021/12/01 08:23:43;;;;;;;4.07;1.60;;;6.70;76.00;;;4.80;87.57;94931.31;4986469;28;19918;-67
2021/12/01 08:26:09;;;;;;;2.35;1.35;;;6.90;75.70;;;4.83;87.40;94920.53;4972245;28;20057;-68
2021/12/01 08:28:35;;;;;;;1.25;1.08;;;6.80;75.30;;;4.88;87.02;94915.56;4987209;28;20513;-70
2021/12/01 08:31:00;;;;;;;1.60;0.90;;;6.90;74.70;;;4.93;86.13;94913.22;4977687;28;20638;-67
2021/12/01 08:33:26;;;;;;;3.38;2.15;;;7.10;74.70;;;4.99;86.84;94897.84;4951070;28;20031;-70
2021/12/01 08:35:52;;;;;;;2.58;1.98;;;7.10;74.70;;;5.03;86.44;94899.09;4968434;28;20094;-67
2021/12/01 08:38:17;;;;;;;2.65;1.50;;;7.00;74.30;;;5.06;85.90;94888.31;4976149;28;20118;-68
2021/12/01 08:40:43;;;;;;;1.92;1.50;;;7.10;74.20;;;5.05;86.16;94891.91;4939846;28;20469;-67
2021/12/01 08:43:09;;;;;;;2.33;1.17;;;6.90;74.80;;;5.04;85.09;94885.06;4970404;28;20590;-67
2021/12/01 08:45:35;;;;;;;1.73;0.90;;;6.80;74.40;;;5.03;85.78;94884.28;4987178;28;20039;-68
2021/12/01 08:48:03;;;;;;;1.38;1.00;;;6.90;74.40;;;5.08;84.88;94865.47;4987090;28;20072;-67
2021/12/01 08:50:29;;;;;;;2.05;1.05;;;7.00;73.70;;;5.10;84.52;94871.31;4987948;28;20563;-68
2021/12/01 08:52:55;;;;;;;2.50;0.70;;;7.10;73.70;;;5.15;84.46;94892.41;4973726;28;20108;-68
2021/12/01 08:55:22;;;;;;;1.00;0.70;;;7.10;73.50;;;5.25;84.82;94879.88;4974227;28;20084;-67
2021/12/01 08:57:48;;;;;;;0.73;0.68;;;7.30;73.10;;;5.37;84.02;94878.38;4992257;28;20022;-68
2021/12/01 09:00:14;;;;;;;1.02;0.80;;;7.60;72.70;;;5.53;83.95;94882.53;4990524;28;20057;-68
2021/12/01 09:02:40;;;;;;;1.35;0.70;;;7.70;71.60;;;5.65;83.87;94872.41;4989546;28;20524;-68
2021/12/01 09:05:06;;;;;;;1.05;0.82;;;7.80;70.60;;;5.74;83.71;94860.84;4988198;28;20045;-68
2021/12/01 09:07:32;;;;;;;1.13;0.60;;;7.90;70.40;;;5.82;82.47;94860.69;4990542;28;20054;-64
2021/12/01 09:09:57;;;;;;;0.77;0.68;;;8.10;70.10;;;5.94;81.89;94851.38;4988448;28;20579;-64
2021/12/01 09:12:23;;;;;;;0.90;0.60;;;8.20;69.00;;;6.07;82.03;94848.84;4973076;28;20062;-73
2021/12/01 09:14:51;;;;;;;1.50;0.70;;;8.50;68.70;;;6.19;81.02;94848.31;4974119;28;20042;-69
2021/12/01 09:17:17;;;;;;;1.00;0.70;;;8.40;68.60;;;6.29;81.20;94848.78;4983534;28;20514;-67
2021/12/01 09:19:43;;;;;;;1.15;0.70;;;8.60;68.20;;;6.37;80.62;94857.28;4974269;28;20033;-66
2021/12/01 09:22:08;;;;;;;0.88;0.60;;;8.50;67.50;;;6.49;79.49;94848.88;4986559;28;20446;-72
2021/12/01 09:24:34;;;;;;;1.13;0.60;;;9.00;65.40;;;6.62;80.32;94844.53;4990057;28;20038;-68
2021/12/01 09:27:00;;;;;;;1.40;0.70;;;9.40;65.20;;;6.74;79.74;94832.50;4990113;28;20027;-70
2021/12/01 09:29:27;;;;;;;1.48;0.80;;;9.40;65.50;;;6.86;79.28;94851.03;4991518;28;20453;-71
2021/12/01 09:31:55;;;;;;;0.85;0.60;;;9.60;64.10;;;6.96;78.64;94850.66;4984774;28;20038;-68
2021/12/01 09:34:21;;;;;;;0.60;0.50;;;9.70;64.00;;;7.01;78.50;94850.84;4954475;28;20043;-67
2021/12/01 09:36:46;;;;;;;2.25;0.70;;;9.40;64.00;;;7.00;78.40;94841.41;4978241;28;20089;-73
2021/12/01 09:39:12;;;;;;;0.50;0.50;;;9.30;65.10;;;7.07;78.27;94837.03;4954329;28;20039;-68
2021/12/01 09:41:38;;;;;;;0.70;0.60;;;9.50;65.10;;;7.14;78.26;94843.06;4986910;28;20277;-65
2021/12/01 09:44:04;;;;;;;1.55;0.75;;;9.70;64.30;;;7.20;78.24;94828.38;4990616;28;20204;-69
2021/12/01 09:46:30;;;;;;;1.35;0.63;;;9.70;64.20;;;7.25;77.64;94832.03;4941808;28;20037;-67
2021/12/01 09:48:56;;;;;;;0.93;0.60;;;11.20;60.40;;;7.64;77.99;94836.47;4971032;28;20509;-68
2021/12/01 09:51:22;;;;;;;0.63;0.50;;;14.40;49.60;;;8.08;78.16;94824.53;4989001;28;20529;-65
2021/12/01 09:53:48;;;;;;;0.85;0.70;;;15.80;46.00;;;8.55;77.77;94815.56;4958113;28;20117;-67
2021/12/01 09:56:15;;;;;;;2.33;0.57;;;16.80;43.10;;;9.06;76.73;94793.75;4983166;28;20041;-65
2021/12/01 09:58:42;;;;;;;2.05;0.70;;;17.50;41.40;;;9.41;75.57;94795.94;4989700;28;20090;-65
2021/12/01 10:01:12;;;;;;;0.68;0.50;;;15.50;43.80;;;9.57;72.69;94792.78;4986100;28;20129;-64
2021/12/01 10:03:39;;;;;;;0.60;0.50;;;14.10;46.80;;;9.61;73.18;94791.34;4969778;28;20069;-65
2021/12/01 10:06:17;;;;;;;0.52;0.40;;;13.40;49.10;;;9.53;72.29;94796.88;4975785;28;20054;-64
2021/12/01 10:08:44;;;;;;;0.70;0.60;;;12.40;51.40;;;9.39;71.63;94780.41;4991498;28;20104;-64
2021/12/01 10:11:24;;;;;;;3.90;2.78;;;11.90;53.40;;;9.20;68.17;94770.84;4970519;28;20089;-65
2021/12/01 10:13:55;;;;;;;2.58;1.10;;;11.60;55.30;;;9.07;70.06;94769.16;4972938;28;20041;-64
2021/12/01 10:16:21;;;;;;;1.83;0.60;;;11.40;55.50;;;9.06;71.73;94767.53;4989264;28;20038;-63
2021/12/01 10:18:53;;;;;;;0.88;0.63;;;11.60;55.10;;;9.08;69.53;94768.13;4988454;28;20034;-64
2021/12/01 10:21:56;;;;;;;2.30;0.90;;;11.70;55.10;;;9.00;68.45;94765.72;4963925;28;20034;-64
2021/12/01 10:24:25;;;;;;;0.52;0.50;;;11.20;55.50;;;8.98;70.70;94752.03;4986074;28;20121;-65
2021/12/01 10:26:58;;;;;;;1.20;0.60;;;11.60;55.90;;;9.04;69.20;94742.50;4973272;28;20045;-64
2021/12/01 10:29:34;;;;;;;1.38;0.65;;;11.70;55.50;;;9.00;69.46;94739.50;4977727;28;20144;-64
2021/12/01 10:32:21;;;;;;;0.60;0.40;;;11.40;55.30;;;9.03;67.60;94735.66;4970244;28;20379;-64